createdAt,value
2018-07-04T00:00:46.593Z,20.80
2018-07-04T00:03:26.035Z,20.70
2018-07-04T00:06:05.564Z,20.70
2018-07-04T00:08:45.292Z,20.70
2018-07-04T00:11:24.844Z,20.70
2018-07-04T00:14:04.259Z,20.70
2018-07-04T00:16:43.738Z,20.70
2018-07-04T00:19:23.166Z,20.80
2018-07-04T00:22:02.906Z,20.80
2018-07-04T00:24:42.434Z,20.80
2018-07-04T00:27:22.001Z,20.80
2018-07-04T00:30:01.315Z,20.90
2018-07-04T00:32:40.789Z,20.80
2018-07-04T00:35:20.292Z,20.80
2018-07-04T00:37:59.919Z,20.80
2018-07-04T00:40:39.383Z,20.80
2018-07-04T00:43:19.018Z,20.80
2018-07-04T00:45:58.663Z,20.80
2018-07-04T00:48:38.235Z,20.70
2018-07-04T00:51:17.863Z,20.70
2018-07-04T00:53:57.494Z,20.60
2018-07-04T00:56:37.150Z,20.40
2018-07-04T00:59:16.911Z,20.40
2018-07-04T01:01:56.508Z,20.40
2018-07-04T01:04:36.154Z,20.40
2018-07-04T01:07:15.688Z,20.40
2018-07-04T01:09:56.247Z,20.40
2018-07-04T01:12:35.763Z,20.30
2018-07-04T01:15:15.355Z,20.20
2018-07-04T01:17:55.000Z,20.10
2018-07-04T01:20:39.978Z,20.20
2018-07-04T01:23:19.559Z,20.10
2018-07-04T01:25:59.214Z,20.20
2018-07-04T01:28:44.158Z,20.10
2018-07-04T01:31:23.646Z,20.10
2018-07-04T01:34:03.109Z,20.00
2018-07-04T01:36:42.669Z,20.10
2018-07-04T01:39:22.257Z,20.00
2018-07-04T01:42:02.295Z,20.00
2018-07-04T01:44:42.002Z,19.90
2018-07-04T01:47:21.564Z,19.90
2018-07-04T01:50:01.190Z,19.90
2018-07-04T01:52:40.590Z,19.80
2018-07-04T01:55:20.145Z,19.70
2018-07-04T01:57:59.722Z,19.60
2018-07-04T02:00:39.357Z,19.50
2018-07-04T02:03:19.022Z,19.50
2018-07-04T02:05:58.633Z,19.40
2018-07-04T02:08:38.042Z,19.40
2018-07-04T02:11:17.614Z,19.40
2018-07-04T02:13:57.137Z,19.40
2018-07-04T02:16:36.679Z,19.40
2018-07-04T02:19:16.222Z,19.40
2018-07-04T02:21:55.874Z,19.30
2018-07-04T02:24:35.460Z,19.20
2018-07-04T02:27:15.122Z,19.20
2018-07-04T02:29:54.731Z,19.20
2018-07-04T02:32:34.306Z,19.10
2018-07-04T02:35:14.179Z,19.10
2018-07-04T02:37:53.618Z,19.00
2018-07-04T02:40:33.241Z,19.00
2018-07-04T02:43:12.742Z,18.90
2018-07-04T02:45:52.402Z,18.90
2018-07-04T02:48:31.845Z,18.80
2018-07-04T02:51:11.408Z,18.80
2018-07-04T02:53:50.883Z,18.80
2018-07-04T02:56:30.415Z,18.80
2018-07-04T02:59:10.532Z,18.80
2018-07-04T03:01:49.894Z,18.70
2018-07-04T03:04:29.405Z,18.70
2018-07-04T03:07:08.951Z,18.70
2018-07-04T03:09:48.342Z,18.70
2018-07-04T03:12:28.010Z,18.70
2018-07-04T03:15:07.478Z,18.70
2018-07-04T03:17:47.068Z,18.70
2018-07-04T03:20:26.491Z,18.70
2018-07-04T03:23:06.299Z,18.70
2018-07-04T03:25:45.918Z,18.60
2018-07-04T03:28:25.358Z,18.70
2018-07-04T03:31:04.960Z,18.60
2018-07-04T03:33:45.705Z,18.60
2018-07-04T03:36:25.383Z,18.50
2018-07-04T03:39:05.949Z,18.40
2018-07-04T03:41:45.614Z,18.20
2018-07-04T03:44:25.270Z,18.10
2018-07-04T03:47:04.880Z,18.10
2018-07-04T03:49:44.285Z,18.10
2018-07-04T03:52:24.082Z,18.10
2018-07-04T03:55:03.741Z,18.00
2018-07-04T03:57:43.187Z,18.10
2018-07-04T04:00:22.898Z,18.10
2018-07-04T04:03:02.615Z,18.10
2018-07-04T04:05:42.297Z,18.20
2018-07-04T04:08:21.922Z,18.20
2018-07-04T04:11:01.494Z,18.20
2018-07-04T04:13:41.110Z,18.50
2018-07-04T04:16:20.678Z,18.60
2018-07-04T04:19:00.367Z,18.60
2018-07-04T04:21:39.756Z,18.60
2018-07-04T04:24:19.466Z,18.60
2018-07-04T04:26:58.983Z,18.60
2018-07-04T04:29:38.476Z,18.60
2018-07-04T04:32:17.907Z,18.60
2018-07-04T04:34:57.548Z,18.70
2018-07-04T04:37:37.008Z,18.80
2018-07-04T04:40:16.722Z,18.80
2018-07-04T04:42:56.120Z,18.80
2018-07-04T04:45:35.626Z,18.90
2018-07-04T04:48:15.327Z,18.90
2018-07-04T04:50:54.910Z,19.00
2018-07-04T04:53:34.358Z,19.00
2018-07-04T04:56:14.015Z,19.00
2018-07-04T04:58:53.689Z,18.90
2018-07-04T05:01:33.101Z,18.90
2018-07-04T05:04:12.718Z,18.80
2018-07-04T05:06:52.452Z,18.90
2018-07-04T05:09:32.125Z,19.00
2018-07-04T05:12:11.693Z,19.10
2018-07-04T05:14:51.158Z,19.30
2018-07-04T05:17:30.691Z,19.50
2018-07-04T05:20:10.353Z,19.60
2018-07-04T05:22:49.903Z,19.60
2018-07-04T05:25:29.543Z,19.70
2018-07-04T05:28:09.212Z,19.80
2018-07-04T05:30:48.714Z,19.90
2018-07-04T05:33:28.342Z,20.10
2018-07-04T05:36:07.986Z,20.30
2018-07-04T05:38:47.474Z,20.40
2018-07-04T05:41:27.126Z,20.40
2018-07-04T05:44:06.601Z,20.40
2018-07-04T05:46:49.642Z,20.50
2018-07-04T05:49:30.675Z,20.50
2018-07-04T05:52:10.347Z,20.50
2018-07-04T05:54:50.058Z,20.60
2018-07-04T05:57:29.458Z,20.70
2018-07-04T06:00:08.887Z,20.70
2018-07-04T06:02:48.710Z,20.70
2018-07-04T06:05:28.100Z,20.70
2018-07-04T06:08:07.688Z,20.80
2018-07-04T06:10:47.234Z,20.90
2018-07-04T06:13:26.647Z,21.10
2018-07-04T06:16:06.320Z,21.20
2018-07-04T06:18:46.056Z,21.20
2018-07-04T06:21:25.698Z,21.20
2018-07-04T06:24:05.301Z,21.20
2018-07-04T06:26:47.963Z,21.30
2018-07-04T06:29:28.835Z,21.30
2018-07-04T06:32:08.565Z,21.50
2018-07-04T06:34:48.173Z,21.50
2018-07-04T06:37:27.895Z,21.70
2018-07-04T06:39:55.058Z,21.90
2018-07-04T06:42:22.439Z,22.00
2018-07-04T06:44:49.622Z,22.20
2018-07-04T06:47:16.760Z,22.40
2018-07-04T06:49:43.958Z,22.60
2018-07-04T06:52:11.109Z,22.60
2018-07-04T06:54:38.287Z,22.80
2018-07-04T06:57:05.450Z,23.10
2018-07-04T06:59:32.620Z,23.40
2018-07-04T07:02:09.453Z,23.80
2018-07-04T07:04:50.920Z,24.20
2018-07-04T07:07:30.528Z,24.30
2018-07-04T07:10:09.886Z,24.50
2018-07-04T07:12:49.949Z,24.30
2018-07-04T07:15:30.249Z,24.70
2018-07-04T07:18:10.526Z,25.00
2018-07-04T07:20:50.188Z,25.20
2018-07-04T07:23:30.227Z,25.40
2018-07-04T07:26:09.670Z,25.60
2018-07-04T07:28:49.207Z,25.40
2018-07-04T07:31:28.638Z,25.40
2018-07-04T07:34:08.398Z,25.50
2018-07-04T07:36:48.127Z,25.40
2018-07-04T07:39:27.454Z,25.30
2018-07-04T07:42:07.030Z,25.30
2018-07-04T07:44:47.061Z,25.20
2018-07-04T07:47:26.495Z,25.30
2018-07-04T07:50:05.942Z,25.40
2018-07-04T07:52:45.403Z,25.40
2018-07-04T07:55:24.965Z,25.50
2018-07-04T07:58:04.343Z,25.70
2018-07-04T08:00:43.975Z,25.90
2018-07-04T08:03:23.310Z,26.00
2018-07-04T08:06:02.862Z,26.30
2018-07-04T08:08:44.467Z,26.50
2018-07-04T08:11:23.907Z,26.80
2018-07-04T08:14:04.542Z,26.90
2018-07-04T08:16:44.169Z,27.20
2018-07-04T08:19:23.776Z,27.40
2018-07-04T08:22:03.123Z,27.40
2018-07-04T08:24:42.736Z,27.60
2018-07-04T08:27:22.245Z,27.40
2018-07-04T08:30:01.831Z,27.20
2018-07-04T08:32:41.311Z,27.30
2018-07-04T08:35:20.849Z,27.20
2018-07-04T08:38:00.349Z,27.20
2018-07-04T08:40:39.838Z,27.10
2018-07-04T08:43:19.314Z,27.20
2018-07-04T08:45:58.577Z,27.10
2018-07-04T08:48:38.199Z,27.10
2018-07-04T08:51:18.214Z,27.00
2018-07-04T08:53:57.658Z,26.80
2018-07-04T08:56:37.338Z,26.80
2018-07-04T08:59:17.431Z,26.70
2018-07-04T09:01:57.186Z,26.70
2018-07-04T09:04:36.578Z,26.70
2018-07-04T09:07:16.072Z,26.60
2018-07-04T09:09:56.137Z,26.60
2018-07-04T09:12:35.626Z,26.50
2018-07-04T09:15:15.090Z,26.40
2018-07-04T09:17:54.512Z,26.30
2018-07-04T09:20:34.039Z,26.20
2018-07-04T09:23:13.544Z,26.10
2018-07-04T09:25:53.104Z,26.00
2018-07-04T09:28:32.878Z,25.80
2018-07-04T09:31:12.361Z,25.70
2018-07-04T09:33:51.939Z,25.60
2018-07-04T09:36:31.451Z,25.30
2018-07-04T09:39:11.063Z,25.10
2018-07-04T09:41:50.613Z,24.80
2018-07-04T09:44:30.098Z,24.50
2018-07-04T09:47:09.619Z,24.20
2018-07-04T09:49:49.115Z,24.10
2018-07-04T09:52:28.666Z,23.90
2018-07-04T09:55:08.235Z,23.80
2018-07-04T09:57:47.935Z,23.50
2018-07-04T10:00:27.386Z,23.10
2018-07-04T10:03:07.131Z,22.80
2018-07-04T10:05:46.584Z,22.50
2018-07-04T10:08:26.966Z,22.00
2018-07-04T10:11:06.425Z,21.70
2018-07-04T10:13:45.913Z,21.60
2018-07-04T10:16:25.254Z,21.40
2018-07-04T10:19:04.903Z,21.30
2018-07-04T10:21:44.427Z,21.40
2018-07-04T10:24:24.074Z,21.40
2018-07-04T10:27:03.518Z,21.30
2018-07-04T10:29:43.190Z,21.10
2018-07-04T10:32:22.742Z,21.00
2018-07-04T10:35:04.078Z,21.00
2018-07-04T10:37:43.490Z,21.00
2018-07-04T10:40:22.948Z,21.00
2018-07-04T10:43:02.624Z,20.90
2018-07-04T10:45:42.248Z,20.80
2018-07-04T10:48:21.799Z,20.80
2018-07-04T10:51:01.447Z,20.90
2018-07-04T10:53:41.030Z,21.00
2018-07-04T10:56:21.550Z,21.00
2018-07-04T10:59:01.045Z,21.10
2018-07-04T11:01:40.820Z,21.10
2018-07-04T11:04:20.274Z,21.20
2018-07-04T11:06:59.967Z,21.30
2018-07-04T11:12:13.145Z,21.60
2018-07-04T11:14:52.827Z,21.60
2018-07-04T11:17:32.412Z,21.60
2018-07-04T11:20:11.982Z,21.50
2018-07-04T11:22:51.408Z,21.50
2018-07-04T11:25:31.051Z,21.50
2018-07-04T11:28:10.562Z,21.60
2018-07-04T11:30:50.134Z,21.70
2018-07-04T11:33:29.682Z,21.80
2018-07-04T11:36:09.209Z,22.00
2018-07-04T11:38:48.764Z,22.10
2018-07-04T11:41:28.401Z,22.30
2018-07-04T11:44:07.941Z,22.50
2018-07-04T11:46:35.309Z,22.70
2018-07-04T11:49:02.479Z,22.90
2018-07-04T11:51:29.656Z,23.00
2018-07-04T11:53:57.210Z,23.00
2018-07-04T11:56:25.332Z,22.90
2018-07-04T11:58:52.461Z,23.00
2018-07-04T12:01:19.631Z,23.00
2018-07-04T12:03:59.153Z,23.00
2018-07-04T12:06:38.739Z,23.00
2018-07-04T12:09:05.964Z,23.10
2018-07-04T12:11:33.126Z,23.20
2018-07-04T12:14:00.290Z,23.20
2018-07-04T12:16:27.473Z,23.30
2018-07-04T12:18:54.689Z,23.50
2018-07-04T12:21:21.863Z,23.70
2018-07-04T12:23:49.027Z,24.00
2018-07-04T12:26:16.193Z,24.30
2018-07-04T12:28:43.341Z,24.50
2018-07-04T12:31:10.506Z,24.70
2018-07-04T12:33:37.691Z,25.00
2018-07-04T12:36:04.870Z,24.70
2018-07-04T12:38:32.046Z,24.60
2018-07-04T12:40:59.222Z,24.80
2018-07-04T12:43:26.448Z,25.00
2018-07-04T12:45:53.546Z,25.10
2018-07-04T12:48:20.724Z,25.20
2018-07-04T12:50:47.900Z,25.30
2018-07-04T12:53:15.065Z,24.90
2018-07-04T12:55:54.570Z,24.50
2018-07-04T12:58:34.076Z,24.90
2018-07-04T13:01:13.571Z,25.20
2018-07-04T13:03:53.191Z,25.20
2018-07-04T13:06:32.826Z,25.40
2018-07-04T13:09:12.382Z,25.60
2018-07-04T13:11:51.813Z,25.80
2018-07-04T13:14:31.370Z,25.80
2018-07-04T13:17:10.663Z,25.70
2018-07-04T13:19:50.105Z,25.60
2018-07-04T13:22:29.677Z,25.70
2018-07-04T13:25:09.220Z,25.80
2018-07-04T13:27:48.867Z,25.70
2018-07-04T13:30:29.512Z,25.90
2018-07-04T13:33:08.967Z,26.20
2018-07-04T13:35:48.508Z,26.50
2018-07-04T13:38:28.144Z,26.80
2018-07-04T13:41:07.504Z,26.80
2018-07-04T13:43:47.057Z,27.00
2018-07-04T13:46:26.439Z,27.30
2018-07-04T13:49:06.062Z,27.50
2018-07-04T13:51:45.503Z,27.50
2018-07-04T13:54:25.208Z,27.60
2018-07-04T13:57:05.097Z,27.70
2018-07-04T13:59:44.785Z,27.80
2018-07-04T14:02:24.278Z,27.70
2018-07-04T14:05:03.892Z,27.60
2018-07-04T14:07:43.801Z,27.60
2018-07-04T14:10:23.744Z,27.60
2018-07-04T14:13:03.396Z,27.50
2018-07-04T14:15:43.042Z,27.60
2018-07-04T14:18:22.893Z,27.70
2018-07-04T14:21:02.417Z,27.70
2018-07-04T14:23:41.967Z,27.60
2018-07-04T14:26:21.534Z,27.60
2018-07-04T14:29:01.062Z,27.50
2018-07-04T14:31:40.545Z,27.50
2018-07-04T14:34:20.139Z,27.40
2018-07-04T14:36:59.481Z,27.40
2018-07-04T14:39:39.022Z,27.30
2018-07-04T14:42:18.345Z,27.30
2018-07-04T14:44:57.931Z,27.40
2018-07-04T14:47:37.334Z,27.40
2018-07-04T14:50:17.046Z,27.40
2018-07-04T14:52:56.687Z,27.40
2018-07-04T14:55:36.156Z,27.40
2018-07-04T14:58:15.601Z,27.40
2018-07-04T15:00:55.149Z,27.40
2018-07-04T15:03:34.597Z,27.50
2018-07-04T15:06:14.803Z,27.50
2018-07-04T15:08:54.654Z,27.50
2018-07-04T15:11:34.189Z,27.50
2018-07-04T15:14:13.774Z,27.50
2018-07-04T15:16:53.206Z,27.50
2018-07-04T15:19:32.838Z,27.60
2018-07-04T15:22:12.246Z,27.70
2018-07-04T15:24:51.646Z,27.50
2018-07-04T15:27:31.078Z,27.50
2018-07-04T15:30:10.612Z,27.60
2018-07-04T15:32:50.073Z,27.60
2018-07-04T15:35:30.370Z,27.80
2018-07-04T15:38:09.743Z,27.80
2018-07-04T15:40:49.318Z,27.80
2018-07-04T15:43:28.934Z,27.80
2018-07-04T15:46:08.398Z,28.00
2018-07-04T15:48:47.803Z,28.20
2018-07-04T15:51:27.121Z,28.30
2018-07-04T15:54:06.537Z,28.40
2018-07-04T15:56:46.087Z,28.40
2018-07-04T15:59:26.374Z,28.50
2018-07-04T16:02:05.959Z,28.60
2018-07-04T16:04:45.595Z,28.60
2018-07-04T16:07:25.043Z,28.70
2018-07-04T16:10:04.493Z,28.70
2018-07-04T16:12:44.075Z,28.70
2018-07-04T16:15:23.435Z,28.40
2018-07-04T16:18:03.100Z,28.30
2018-07-04T16:20:42.602Z,28.30
2018-07-04T16:23:21.981Z,28.30
2018-07-04T16:26:01.651Z,28.20
2018-07-04T16:31:15.696Z,27.90
2018-07-04T16:33:55.404Z,27.80
2018-07-04T16:36:35.056Z,27.80
2018-07-04T16:39:15.059Z,27.80
2018-07-04T16:41:55.522Z,27.90
2018-07-04T16:44:35.134Z,28.10
2018-07-04T16:47:16.757Z,28.20
2018-07-04T16:49:56.594Z,28.20
2018-07-04T16:52:36.212Z,28.20
2018-07-04T16:55:16.579Z,28.10
2018-07-04T16:57:56.122Z,28.00
2018-07-04T17:00:35.468Z,27.90
2018-07-04T17:03:15.198Z,27.80
2018-07-04T17:05:54.716Z,27.80
2018-07-04T17:08:34.167Z,27.80
2018-07-04T17:11:13.790Z,27.90
2018-07-04T17:13:53.306Z,27.90
2018-07-04T17:19:06.391Z,28.10
2018-07-04T17:21:45.742Z,28.20
2018-07-04T17:24:25.289Z,28.20
2018-07-04T17:27:04.904Z,28.30
2018-07-04T17:29:44.519Z,28.30
2018-07-04T17:32:23.941Z,28.20
2018-07-04T17:35:03.531Z,28.10
2018-07-04T17:37:42.978Z,28.00
2018-07-04T17:40:22.317Z,27.80
2018-07-04T17:43:01.902Z,27.90
2018-07-04T17:45:41.410Z,27.80
2018-07-04T17:48:20.960Z,27.70
2018-07-04T17:51:00.415Z,27.60
2018-07-04T17:53:39.913Z,27.50
2018-07-04T17:56:19.362Z,27.30
2018-07-04T17:58:59.092Z,27.20
2018-07-04T18:01:38.773Z,27.10
2018-07-04T18:04:18.256Z,26.90
2018-07-04T18:06:57.849Z,26.70
2018-07-04T18:09:37.570Z,26.60
2018-07-04T18:12:17.068Z,26.50
2018-07-04T18:14:56.522Z,26.50
2018-07-04T18:17:36.163Z,26.40
2018-07-04T18:20:15.714Z,26.40
2018-07-04T18:22:55.127Z,26.30
2018-07-04T18:25:34.723Z,26.20
2018-07-04T18:28:14.199Z,26.10
2018-07-04T18:30:53.852Z,26.00
2018-07-04T18:33:36.412Z,25.90
2018-07-04T18:36:17.723Z,25.80
2018-07-04T18:38:57.238Z,25.70
2018-07-04T18:41:36.805Z,25.60
2018-07-04T18:44:16.294Z,25.60
2018-07-04T18:46:55.750Z,25.60
2018-07-04T18:49:35.273Z,25.50
2018-07-04T18:52:14.899Z,25.50
2018-07-04T18:54:54.416Z,25.50
2018-07-04T18:57:33.922Z,25.50
2018-07-04T19:00:13.530Z,25.30
2018-07-04T19:02:53.249Z,25.30
2018-07-04T19:05:32.821Z,25.20
2018-07-04T19:08:12.377Z,25.10
2018-07-04T19:10:51.919Z,25.00
2018-07-04T19:13:31.566Z,24.80
2018-07-04T19:16:11.121Z,24.60
2018-07-04T19:18:50.595Z,24.50
2018-07-04T19:21:30.191Z,24.30
2018-07-04T19:24:09.643Z,24.20
2018-07-04T19:26:49.306Z,24.10
2018-07-04T19:29:28.758Z,24.00
2018-07-04T19:32:08.353Z,23.80
2018-07-04T19:34:47.998Z,23.70
2018-07-04T19:37:27.529Z,23.60
2018-07-04T19:40:06.988Z,23.50
2018-07-04T19:42:46.419Z,23.40
2018-07-04T19:45:26.085Z,23.30
2018-07-04T19:48:05.701Z,23.30
2018-07-04T19:50:45.169Z,23.30
2018-07-04T19:53:24.728Z,23.20
2018-07-04T19:56:04.318Z,23.10
2018-07-04T19:58:43.731Z,23.10
2018-07-04T20:01:23.178Z,23.10
2018-07-04T20:04:02.662Z,23.10
2018-07-04T20:06:42.173Z,23.10
2018-07-04T20:09:21.747Z,23.00
2018-07-04T20:12:01.154Z,22.90
2018-07-04T20:14:40.774Z,22.90
2018-07-04T20:17:20.343Z,22.80
2018-07-04T20:19:59.843Z,22.70
2018-07-04T20:22:39.612Z,22.60
2018-07-04T20:25:19.216Z,22.60
2018-07-04T20:27:58.655Z,22.50
2018-07-04T20:30:39.218Z,22.40
2018-07-04T20:33:19.114Z,22.30
2018-07-04T20:35:58.460Z,22.30
2018-07-04T20:38:37.998Z,22.30
2018-07-04T20:41:17.335Z,22.30
2018-07-04T20:43:56.885Z,22.30
2018-07-04T20:46:36.392Z,22.30
2018-07-04T20:51:49.329Z,22.20
2018-07-04T20:54:28.733Z,22.10
2018-07-04T20:57:08.357Z,22.10
2018-07-04T20:59:47.737Z,22.00
2018-07-04T21:02:27.270Z,21.90
2018-07-04T21:05:06.753Z,21.70
2018-07-04T21:07:46.260Z,21.60
2018-07-04T21:10:25.881Z,21.40
2018-07-04T21:13:05.690Z,21.30
2018-07-04T21:15:45.294Z,21.30
2018-07-04T21:18:24.856Z,21.20
2018-07-04T21:21:04.333Z,21.10
2018-07-04T21:23:43.725Z,21.10
2018-07-04T21:26:23.262Z,21.10
2018-07-04T21:29:02.714Z,21.00
2018-07-04T21:31:42.381Z,21.00
2018-07-04T21:34:22.077Z,21.00
2018-07-04T21:37:01.615Z,21.10
2018-07-04T21:39:41.173Z,20.90
2018-07-04T21:42:21.064Z,20.90
2018-07-04T21:45:00.562Z,20.90
2018-07-04T21:47:40.142Z,20.80
2018-07-04T21:50:19.741Z,20.80
2018-07-04T21:52:59.430Z,20.70
2018-07-04T21:55:39.137Z,20.60
2018-07-04T21:58:19.703Z,20.60
2018-07-04T22:00:59.094Z,20.60
2018-07-04T22:03:38.876Z,20.60
2018-07-04T22:06:18.146Z,20.60
2018-07-04T22:08:57.408Z,20.60
2018-07-04T22:11:36.963Z,20.50
2018-07-04T22:14:16.387Z,20.40
2018-07-04T22:16:56.856Z,20.30
2018-07-04T22:19:36.411Z,20.30
2018-07-04T22:22:15.886Z,20.20
2018-07-04T22:24:55.439Z,20.10
2018-07-04T22:27:34.921Z,20.10
2018-07-04T22:30:14.445Z,20.10
2018-07-04T22:32:53.877Z,20.10
2018-07-04T22:35:33.588Z,20.20
2018-07-04T22:38:13.154Z,20.20
2018-07-04T22:40:52.854Z,20.00
2018-07-04T22:43:32.384Z,19.90
2018-07-04T22:46:11.965Z,19.90
2018-07-04T22:48:51.220Z,20.00
2018-07-04T22:51:30.950Z,20.00
2018-07-04T22:54:10.701Z,20.00
2018-07-04T22:56:50.217Z,19.90
2018-07-04T22:59:29.939Z,19.90
2018-07-04T23:02:09.575Z,19.80
2018-07-04T23:04:49.581Z,19.70
2018-07-04T23:07:28.914Z,19.60
2018-07-04T23:10:08.455Z,19.50
2018-07-04T23:12:47.996Z,19.40
2018-07-04T23:15:27.544Z,19.30
2018-07-04T23:18:07.114Z,19.20
2018-07-04T23:20:46.688Z,19.10
2018-07-04T23:23:26.362Z,19.10
2018-07-04T23:26:06.075Z,19.00
2018-07-04T23:28:45.619Z,19.00
2018-07-04T23:31:25.203Z,18.90
2018-07-04T23:34:04.736Z,18.90
2018-07-04T23:36:44.322Z,18.80
2018-07-04T23:39:23.850Z,18.80
2018-07-04T23:42:03.531Z,18.70
2018-07-04T23:44:43.042Z,18.70
2018-07-04T23:47:22.619Z,18.60
2018-07-04T23:50:02.068Z,18.60
2018-07-04T23:52:41.725Z,18.50
2018-07-04T23:55:21.294Z,18.50
2018-07-04T23:58:00.780Z,18.40
